Time,TemperatureF,DewpointF,PressureIn,WindDirection,WindDirectionDegrees,WindSpeedMPH,WindSpeedGustMPH,Humidity,HourlyPrecipIn,Conditions,Clouds,dailyrainin,SoftwareType,DateUTC
2013-02-02 00:00:00,20.5,14.7,30.19,WNW,290,11.5,11.5,78,0.00,-SN,,0.00,WeatherDisplay:10.37,2013-02-02 05:00:00,
2013-02-02 00:01:00,20.5,8.0,30.19,WNW,300,21.9,21.9,58,0.00,SCT,,0.00,WeatherDisplay:10.37,2013-02-02 05:01:00,
2013-02-02 00:02:00,20.5,8.0,30.19,WNW,300,21.9,32.2,58,0.00,SCT,,0.00,WeatherDisplay:10.37,2013-02-02 05:02:00,
2013-02-02 00:07:00,20.3,7.9,30.19,WNW,300,21.9,32.2,58,0.00,SCT,,0.00,WeatherDisplay:10.37,2013-02-02 05:07:00,
2013-02-02 00:12:00,20.1,7.7,30.19,WNW,300,21.9,32.2,58,0.00,SCT,,0.00,WeatherDisplay:10.37,2013-02-02 05:12:00,
2013-02-02 00:17:00,20.1,7.7,30.19,WNW,300,21.9,32.2,58,0.00,SCT,,0.00,WeatherDisplay:10.37,2013-02-02 05:17:00,
2013-02-02 00:22:00,19.9,7.5,30.19,WNW,300,21.9,32.2,58,0.00,SCT,,0.00,WeatherDisplay:10.37,2013-02-02 05:22:00,
2013-02-02 00:27:00,19.9,7.5,30.19,WNW,300,21.9,32.2,58,0.00,SCT,,0.00,WeatherDisplay:10.37,2013-02-02 05:27:00,
2013-02-02 00:32:00,19.9,7.5,30.19,WNW,300,21.9,32.2,58,0.00,SCT,,0.00,WeatherDisplay:10.37,2013-02-02 05:32:00,
2013-02-02 00:37:00,19.8,7.4,30.19,WNW,300,21.9,32.2,58,0.00,SCT,,0.00,WeatherDisplay:10.37,2013-02-02 05:37:00,
2013-02-02 00:42:00,19.6,7.2,30.19,WNW,300,21.9,32.2,58,0.00,SCT,,0.00,WeatherDisplay:10.37,2013-02-02 05:42:00,
2013-02-02 00:47:00,19.6,7.2,30.19,WNW,300,21.9,32.2,58,0.00,SCT,,0.00,WeatherDisplay:10.37,2013-02-02 05:47:00,
2013-02-02 00:52:00,19.6,7.2,30.19,WNW,300,21.9,32.2,58,0.00,SCT,,0.00,WeatherDisplay:10.37,2013-02-02 05:52:00,
2013-02-02 00:57:00,19.4,7.0,30.19,WNW,300,21.9,32.2,58,0.00,SCT,,0.00,WeatherDisplay:10.37,2013-02-02 05:57:00,
2013-02-02 01:02:00,19.4,7.0,30.19,WNW,300,21.9,32.2,58,0.00,SCT,,0.00,WeatherDisplay:10.37,2013-02-02 06:02:00,
2013-02-02 01:07:00,19.4,7.0,30.19,WNW,300,21.9,32.2,58,0.00,SCT,,0.00,WeatherDisplay:10.37,2013-02-02 06:07:00,
2013-02-02 01:12:00,19.2,6.8,30.22,WNW,300,21.9,32.2,58,0.00,SCT,,0.00,WeatherDisplay:10.37,2013-02-02 06:12:00,
2013-02-02 01:17:00,19.2,6.8,30.22,WNW,290,9.2,32.2,58,0.00,SCT,,0.00,WeatherDisplay:10.37,2013-02-02 06:17:00,
2013-02-02 01:22:00,19.0,6.7,30.22,WNW,290,9.2,9.2,58,0.00,SCT,,0.00,WeatherDisplay:10.37,2013-02-02 06:22:00,
2013-02-02 01:27:00,19.0,6.7,30.22,WNW,290,9.2,9.2,58,0.00,SCT,,0.00,WeatherDisplay:10.37,2013-02-02 06:27:00,
2013-02-02 01:32:00,19.0,6.7,30.22,WNW,290,9.2,9.2,58,0.00,SCT,,0.00,WeatherDisplay:10.37,2013-02-02 06:32:00,
2013-02-02 01:37:00,18.9,6.5,30.22,WNW,290,9.2,9.2,58,0.00,SCT,,0.00,WeatherDisplay:10.37,2013-02-02 06:37:00,
2013-02-02 01:42:00,18.7,6.3,30.22,WNW,290,9.2,9.2,58,0.00,SCT,,0.00,WeatherDisplay:10.37,2013-02-02 06:42:00,
2013-02-02 01:47:00,18.5,6.2,30.22,WNW,290,9.2,9.2,58,0.00,SCT,,0.00,WeatherDisplay:10.37,2013-02-02 06:47:00,
2013-02-02 01:52:00,18.5,6.2,30.22,WNW,290,9.2,9.2,58,0.00,SCT,,0.00,WeatherDisplay:10.37,2013-02-02 06:52:00,
2013-02-02 01:57:00,18.5,6.2,30.22,WNW,290,9.2,9.2,58,0.00,SCT,,0.00,WeatherDisplay:10.37,2013-02-02 06:57:00,
2013-02-02 02:02:00,18.3,4.8,30.22,WNW,300,13.8,20.7,55,0.00,FEW,,0.00,WeatherDisplay:10.37,2013-02-02 07:02:00,
2013-02-02 02:07:00,18.3,4.8,30.22,WNW,300,13.8,20.7,55,0.00,FEW,,0.00,WeatherDisplay:10.37,2013-02-02 07:07:00,
2013-02-02 02:12:00,18.1,4.7,30.22,WNW,300,13.8,20.7,55,0.00,FEW,,0.00,WeatherDisplay:10.37,2013-02-02 07:12:00,
2013-02-02 02:17:00,18.1,4.7,30.22,WNW,300,13.8,20.7,55,0.00,FEW,,0.00,WeatherDisplay:10.37,2013-02-02 07:17:00,
2013-02-02 02:22:00,18.0,4.5,30.22,WNW,300,13.8,20.7,55,0.00,FEW,,0.00,WeatherDisplay:10.37,2013-02-02 07:22:00,
2013-02-02 02:27:00,18.0,4.5,30.22,WNW,300,13.8,20.7,55,0.00,FEW,,0.00,WeatherDisplay:10.37,2013-02-02 07:27:00,
2013-02-02 02:32:00,17.8,4.3,30.22,WNW,300,13.8,20.7,55,0.00,FEW,,0.00,WeatherDisplay:10.37,2013-02-02 07:32:00,
2013-02-02 02:37:00,17.8,4.3,30.22,WNW,300,13.8,20.7,55,0.00,FEW,,0.00,WeatherDisplay:10.37,2013-02-02 07:37:00,
2013-02-02 02:42:00,17.6,4.2,30.22,WNW,300,13.8,20.7,55,0.00,FEW,,0.00,WeatherDisplay:10.37,2013-02-02 07:42:00,
2013-02-02 02:47:00,17.6,4.2,30.22,WNW,300,13.8,20.7,55,0.00,FEW,,0.00,WeatherDisplay:10.37,2013-02-02 07:47:00,
2013-02-02 02:52:00,17.6,4.2,30.22,WNW,300,13.8,20.7,55,0.00,FEW,,0.00,WeatherDisplay:10.37,2013-02-02 07:52:00,
2013-02-02 02:57:00,17.4,4.0,30.22,WNW,300,13.8,20.7,55,0.00,FEW,,0.00,WeatherDisplay:10.37,2013-02-02 07:57:00,
2013-02-02 03:05:00,17.2,3.8,30.22,WNW,300,13.8,20.7,55,0.00,FEW,,0.00,WeatherDisplay:10.37,2013-02-02 08:05:00,
2013-02-02 03:11:00,16.9,3.5,30.22,WNW,300,13.8,20.7,55,0.00,FEW,,0.00,WeatherDisplay:10.37,2013-02-02 08:11:00,
2013-02-02 03:16:00,16.7,3.3,30.22,WNW,300,8.1,20.7,55,0.00,SCT,,0.00,WeatherDisplay:10.37,2013-02-02 08:16:00,
2013-02-02 03:21:00,16.7,3.3,30.22,WNW,300,8.1,8.1,55,0.00,SCT,,0.00,WeatherDisplay:10.37,2013-02-02 08:21:00,
2013-02-02 03:26:00,16.7,3.3,30.22,WNW,300,8.1,8.1,55,0.00,SCT,,0.00,WeatherDisplay:10.37,2013-02-02 08:26:00,
2013-02-02 03:31:00,16.5,3.1,30.22,WNW,300,8.1,8.1,55,0.00,SCT,,0.00,WeatherDisplay:10.37,2013-02-02 08:31:00,
2013-02-02 03:36:00,16.5,3.1,30.22,WNW,300,8.1,8.1,55,0.00,SCT,,0.00,WeatherDisplay:10.37,2013-02-02 08:36:00,
2013-02-02 03:41:00,16.5,3.1,30.22,WNW,300,8.1,8.1,55,0.00,SCT,,0.00,WeatherDisplay:10.37,2013-02-02 08:41:00,
2013-02-02 03:46:00,16.3,3.0,30.22,WNW,300,8.1,8.1,55,0.00,SCT,,0.00,WeatherDisplay:10.37,2013-02-02 08:46:00,
2013-02-02 03:51:00,16.2,2.8,30.22,WNW,300,8.1,8.1,55,0.00,SCT,,0.00,WeatherDisplay:10.37,2013-02-02 08:51:00,
2013-02-02 03:56:00,16.2,2.8,30.22,WNW,300,8.1,8.1,55,0.00,SCT,,0.00,WeatherDisplay:10.37,2013-02-02 08:56:00,
2013-02-02 04:01:00,16.0,2.6,30.22,WNW,300,8.1,8.1,55,0.00,SCT,,0.00,WeatherDisplay:10.37,2013-02-02 09:01:00,
2013-02-02 04:06:00,16.0,2.6,30.22,WNW,300,8.1,8.1,55,0.00,SCT,,0.00,WeatherDisplay:10.37,2013-02-02 09:06:00,
2013-02-02 04:11:00,15.8,2.5,30.22,WNW,300,8.1,8.1,55,0.00,SCT,,0.00,WeatherDisplay:10.37,2013-02-02 09:11:00,
2013-02-02 04:16:00,15.8,4.4,30.22,WNW,300,0.0,8.1,60,0.00,SCT,,0.00,WeatherDisplay:10.37,2013-02-02 09:16:00,
2013-02-02 04:21:00,15.6,4.2,30.22,WNW,300,0.0,0.0,60,0.00,SCT,,0.00,WeatherDisplay:10.37,2013-02-02 09:21:00,
2013-02-02 04:26:00,15.4,4.0,30.22,WNW,300,0.0,0.0,60,0.00,SCT,,0.00,WeatherDisplay:10.37,2013-02-02 09:26:00,
2013-02-02 04:31:00,15.4,4.0,30.25,WNW,300,0.0,0.0,60,0.00,SCT,,0.00,WeatherDisplay:10.37,2013-02-02 09:31:00,
2013-02-02 04:36:00,15.1,3.7,30.25,WNW,300,0.0,0.0,60,0.00,SCT,,0.00,WeatherDisplay:10.37,2013-02-02 09:36:00,
2013-02-02 04:41:00,15.1,3.7,30.25,WNW,300,0.0,0.0,60,0.00,SCT,,0.00,WeatherDisplay:10.37,2013-02-02 09:41:00,
2013-02-02 04:46:00,14.9,3.5,30.22,WNW,300,0.0,0.0,60,0.00,SCT,,0.00,WeatherDisplay:10.37,2013-02-02 09:46:00,
2013-02-02 04:51:00,14.7,3.3,30.22,WNW,300,0.0,0.0,60,0.00,SCT,,0.00,WeatherDisplay:10.37,2013-02-02 09:51:00,
2013-02-02 04:56:00,14.5,3.2,30.22,WNW,300,0.0,0.0,60,0.00,SCT,,0.00,WeatherDisplay:10.37,2013-02-02 09:56:00,
2013-02-02 05:01:00,14.5,3.2,30.22,WNW,300,0.0,0.0,60,0.00,SCT,,0.00,WeatherDisplay:10.37,2013-02-02 10:01:00,
2013-02-02 05:06:00,14.5,3.2,30.22,WNW,300,0.0,0.0,60,0.00,SCT,,0.00,WeatherDisplay:10.37,2013-02-02 10:06:00,
2013-02-02 05:11:00,14.4,3.0,30.22,WNW,300,0.0,0.0,60,0.00,SCT,,0.00,WeatherDisplay:10.37,2013-02-02 10:11:00,
2013-02-02 05:16:00,14.4,4.1,30.22,WNW,300,0.0,0.0,63,0.00,SCT,,0.00,WeatherDisplay:10.37,2013-02-02 10:16:00,
2013-02-02 05:21:00,14.2,3.9,30.22,WNW,300,0.0,0.0,63,0.00,SCT,,0.00,WeatherDisplay:10.37,2013-02-02 10:21:00,
2013-02-02 05:26:00,14.2,3.9,30.22,WNW,300,0.0,0.0,63,0.00,SCT,,0.00,WeatherDisplay:10.37,2013-02-02 10:26:00,
2013-02-02 05:31:00,14.0,3.7,30.22,WNW,300,0.0,0.0,63,0.00,SCT,,0.00,WeatherDisplay:10.37,2013-02-02 10:31:00,
2013-02-02 05:36:00,13.8,3.5,30.22,WNW,300,0.0,0.0,63,0.00,SCT,,0.00,WeatherDisplay:10.37,2013-02-02 10:36:00,
2013-02-02 05:41:00,13.8,3.5,30.22,WNW,300,0.0,0.0,63,0.00,SCT,,0.00,WeatherDisplay:10.37,2013-02-02 10:41:00,
2013-02-02 05:46:00,13.6,3.4,30.22,WNW,300,0.0,0.0,63,0.00,SCT,,0.00,WeatherDisplay:10.37,2013-02-02 10:46:00,
2013-02-02 05:51:00,13.6,3.4,30.22,WNW,300,0.0,0.0,63,0.00,SCT,,0.00,WeatherDisplay:10.37,2013-02-02 10:51:00,
2013-02-02 05:56:00,13.5,3.2,30.22,WNW,300,0.0,0.0,63,0.00,SCT,,0.00,WeatherDisplay:10.37,2013-02-02 10:56:00,
2013-02-02 06:01:00,13.5,3.2,30.22,WNW,300,0.0,0.0,63,0.00,SCT,,0.00,WeatherDisplay:10.37,2013-02-02 11:01:00,
2013-02-02 06:06:00,13.5,3.2,30.22,WNW,300,0.0,0.0,63,0.00,SCT,,0.00,WeatherDisplay:10.37,2013-02-02 11:06:00,
2013-02-02 06:11:00,13.5,3.2,30.22,WNW,300,0.0,0.0,63,0.00,SCT,,0.00,WeatherDisplay:10.37,2013-02-02 11:11:00,
2013-02-02 06:16:00,13.5,6.1,30.22,South,180,3.5,0.0,72,0.00,CLR,,0.00,WeatherDisplay:10.37,2013-02-02 11:16:00,
2013-02-02 06:21:00,13.3,5.9,30.22,South,180,3.5,3.5,72,0.00,CLR,,0.00,WeatherDisplay:10.37,2013-02-02 11:21:00,
2013-02-02 06:26:00,13.3,5.9,30.22,South,180,3.5,3.5,72,0.00,CLR,,0.00,WeatherDisplay:10.37,2013-02-02 11:26:00,
2013-02-02 06:31:00,12.9,5.6,30.22,South,180,3.5,3.5,72,0.00,CLR,,0.00,WeatherDisplay:10.37,2013-02-02 11:31:00,
2013-02-02 06:36:00,13.1,5.8,30.22,South,180,3.5,3.5,72,0.00,CLR,,0.00,WeatherDisplay:10.37,2013-02-02 11:36:00,
2013-02-02 06:41:00,13.1,5.8,30.22,South,180,3.5,3.5,72,0.00,CLR,,0.00,WeatherDisplay:10.37,2013-02-02 11:41:00,
2013-02-02 06:46:00,12.9,5.6,30.22,South,180,3.5,3.5,72,0.00,CLR,,0.00,WeatherDisplay:10.37,2013-02-02 11:46:00,
2013-02-02 06:51:00,12.7,5.4,30.22,South,180,3.5,3.5,72,0.00,CLR,,0.00,WeatherDisplay:10.37,2013-02-02 11:51:00,
2013-02-02 06:56:00,12.7,5.4,30.22,South,180,3.5,3.5,72,0.00,CLR,,0.00,WeatherDisplay:10.37,2013-02-02 11:56:00,
2013-02-02 07:01:00,12.7,6.3,30.22,South,180,0.0,3.5,75,0.00,FEW,,0.00,WeatherDisplay:10.37,2013-02-02 12:01:00,
2013-02-02 07:06:00,12.7,6.3,30.22,South,180,0.0,0.0,75,0.00,FEW,,0.00,WeatherDisplay:10.37,2013-02-02 12:06:00,
2013-02-02 07:11:00,12.7,6.3,30.22,South,180,0.0,0.0,75,0.00,FEW,,0.00,WeatherDisplay:10.37,2013-02-02 12:11:00,
2013-02-02 07:16:00,12.7,6.3,30.25,South,180,0.0,0.0,75,0.00,FEW,,0.00,WeatherDisplay:10.37,2013-02-02 12:16:00,
2013-02-02 07:21:00,12.6,6.1,30.25,South,180,0.0,0.0,75,0.00,FEW,,0.00,WeatherDisplay:10.37,2013-02-02 12:21:00,
2013-02-02 07:26:00,12.6,6.1,30.25,South,180,0.0,0.0,75,0.00,FEW,,0.00,WeatherDisplay:10.37,2013-02-02 12:26:00,
2013-02-02 07:31:00,12.7,6.3,30.25,South,180,0.0,0.0,75,0.00,FEW,,0.00,WeatherDisplay:10.37,2013-02-02 12:31:00,
2013-02-02 07:36:00,12.7,6.3,30.25,South,180,0.0,0.0,75,0.00,FEW,,0.00,WeatherDisplay:10.37,2013-02-02 12:36:00,
2013-02-02 07:41:00,12.9,6.5,30.25,South,180,0.0,0.0,75,0.00,FEW,,0.00,WeatherDisplay:10.37,2013-02-02 12:41:00,
2013-02-02 07:46:00,13.3,6.8,30.22,South,180,0.0,0.0,75,0.00,FEW,,0.00,WeatherDisplay:10.37,2013-02-02 12:46:00,
2013-02-02 07:51:00,13.8,7.4,30.22,South,180,0.0,0.0,75,0.00,FEW,,0.00,WeatherDisplay:10.37,2013-02-02 12:51:00,
2013-02-02 07:56:00,14.7,8.2,30.22,South,180,0.0,0.0,75,0.00,FEW,,0.00,WeatherDisplay:10.37,2013-02-02 12:56:00,
2013-02-02 08:01:00,15.1,10.8,30.25,South,180,0.0,0.0,83,0.00,SCT,,0.00,WeatherDisplay:10.37,2013-02-02 13:01:00,
2013-02-02 08:06:00,15.3,11.0,30.25,South,180,0.0,0.0,83,0.00,SCT,,0.00,WeatherDisplay:10.37,2013-02-02 13:06:00,
2013-02-02 08:11:00,16.7,12.4,30.25,South,180,0.0,0.0,83,0.00,SCT,,0.00,WeatherDisplay:10.37,2013-02-02 13:11:00,
2013-02-02 08:16:00,17.6,13.3,30.25,South,180,0.0,0.0,83,0.00,SCT,,0.00,WeatherDisplay:10.37,2013-02-02 13:16:00,
2013-02-02 08:21:00,18.5,14.2,30.25,South,180,0.0,0.0,83,0.00,SCT,,0.00,WeatherDisplay:10.37,2013-02-02 13:21:00,
2013-02-02 08:26:00,19.2,14.9,30.25,South,180,0.0,0.0,83,0.00,SCT,,0.00,WeatherDisplay:10.37,2013-02-02 13:26:00,
2013-02-02 08:31:00,19.8,15.4,30.22,South,180,0.0,0.0,83,0.00,SCT,,0.00,WeatherDisplay:10.37,2013-02-02 13:31:00,
2013-02-02 08:36:00,20.1,15.8,30.22,South,180,0.0,0.0,83,0.00,SCT,,0.00,WeatherDisplay:10.37,2013-02-02 13:36:00,
2013-02-02 08:41:00,19.9,15.6,30.22,South,180,0.0,0.0,83,0.00,SCT,,0.00,WeatherDisplay:10.37,2013-02-02 13:41:00,
2013-02-02 08:46:00,19.8,15.4,30.22,South,180,0.0,0.0,83,0.00,SCT,,0.00,WeatherDisplay:10.37,2013-02-02 13:46:00,
2013-02-02 08:51:00,19.9,15.6,30.22,South,180,0.0,0.0,83,0.00,SCT,,0.00,WeatherDisplay:10.37,2013-02-02 13:51:00,
2013-02-02 08:56:00,20.7,16.3,30.22,South,180,0.0,0.0,83,0.00,SCT,,0.00,WeatherDisplay:10.37,2013-02-02 13:56:00,
2013-02-02 09:01:00,21.0,16.7,30.22,South,180,0.0,0.0,83,0.00,SCT,,0.00,WeatherDisplay:10.37,2013-02-02 14:01:00,
2013-02-02 09:06:00,21.6,17.2,30.22,South,180,0.0,0.0,83,0.00,SCT,,0.00,WeatherDisplay:10.37,2013-02-02 14:06:00,
2013-02-02 09:11:00,21.6,17.2,30.22,South,180,0.0,0.0,83,0.00,SCT,,0.00,WeatherDisplay:10.37,2013-02-02 14:11:00,
2013-02-02 09:16:00,21.9,11.2,30.22,South,180,6.9,0.0,63,0.00,SCT,,0.00,WeatherDisplay:10.37,2013-02-02 14:16:00,
2013-02-02 09:21:00,21.9,11.2,30.22,South,180,6.9,6.9,63,0.00,SCT,,0.00,WeatherDisplay:10.37,2013-02-02 14:21:00,
2013-02-02 09:26:00,22.3,11.6,30.22,South,180,6.9,6.9,63,0.00,SCT,,0.00,WeatherDisplay:10.37,2013-02-02 14:26:00,
2013-02-02 09:31:00,22.6,11.9,30.22,South,180,6.9,6.9,63,0.00,SCT,,0.00,WeatherDisplay:10.37,2013-02-02 14:31:00,
2013-02-02 09:36:00,23.0,12.3,30.22,South,180,6.9,6.9,63,0.00,SCT,,0.00,WeatherDisplay:10.37,2013-02-02 14:36:00,
2013-02-02 09:41:00,23.5,12.8,30.22,South,180,6.9,6.9,63,0.00,SCT,,0.00,WeatherDisplay:10.37,2013-02-02 14:41:00,
2013-02-02 09:46:00,23.7,13.0,30.22,South,180,6.9,6.9,63,0.00,SCT,,0.00,WeatherDisplay:10.37,2013-02-02 14:46:00,
2013-02-02 09:51:00,23.5,12.8,30.22,South,180,6.9,6.9,63,0.00,SCT,,0.00,WeatherDisplay:10.37,2013-02-02 14:51:00,
2013-02-02 09:56:00,24.1,13.3,30.22,South,180,6.9,6.9,63,0.00,SCT,,0.00,WeatherDisplay:10.37,2013-02-02 14:56:00,
2013-02-02 10:01:00,23.5,13.1,30.22,South,180,10.4,10.4,64,0.00,BKN,,0.00,WeatherDisplay:10.37,2013-02-02 15:01:00,
2013-02-02 10:06:00,23.7,13.3,30.22,South,180,10.4,10.4,64,0.00,BKN,,0.00,WeatherDisplay:10.37,2013-02-02 15:06:00,
2013-02-02 10:11:00,23.7,13.3,30.22,South,180,10.4,10.4,64,0.00,BKN,,0.00,WeatherDisplay:10.37,2013-02-02 15:11:00,
2013-02-02 10:16:00,24.6,14.2,30.22,South,180,10.4,10.4,64,0.00,BKN,,0.00,WeatherDisplay:10.37,2013-02-02 15:16:00,
2013-02-02 10:21:00,25.7,15.2,30.22,South,180,10.4,10.4,64,0.00,BKN,,0.00,WeatherDisplay:10.37,2013-02-02 15:21:00,
2013-02-02 10:26:00,26.1,15.5,30.22,South,180,10.4,10.4,64,0.00,BKN,,0.00,WeatherDisplay:10.37,2013-02-02 15:26:00,
2013-02-02 10:31:00,25.9,15.4,30.19,South,180,10.4,10.4,64,0.00,BKN,,0.00,WeatherDisplay:10.37,2013-02-02 15:31:00,
2013-02-02 10:36:00,25.7,15.2,30.19,South,180,10.4,10.4,64,0.00,BKN,,0.00,WeatherDisplay:10.37,2013-02-02 15:36:00,
2013-02-02 10:41:00,26.1,15.5,30.19,South,180,10.4,10.4,64,0.00,BKN,,0.00,WeatherDisplay:10.37,2013-02-02 15:41:00,
2013-02-02 10:46:00,26.2,15.7,30.19,South,180,10.4,10.4,64,0.00,BKN,,0.00,WeatherDisplay:10.37,2013-02-02 15:46:00,
2013-02-02 10:51:00,26.1,15.5,30.19,South,180,10.4,10.4,64,0.00,BKN,,0.00,WeatherDisplay:10.37,2013-02-02 15:51:00,
2013-02-02 10:56:00,25.9,15.4,30.19,South,180,10.4,10.4,64,0.00,BKN,,0.00,WeatherDisplay:10.37,2013-02-02 15:56:00,
2013-02-02 11:01:00,25.5,13.2,30.19,South,190,9.2,10.4,59,0.00,BKN,,0.00,WeatherDisplay:10.37,2013-02-02 16:01:00,
2013-02-02 11:06:00,25.5,13.2,30.19,South,190,9.2,9.2,59,0.00,BKN,,0.00,WeatherDisplay:10.37,2013-02-02 16:06:00,
2013-02-02 11:11:00,25.2,12.8,30.16,South,190,9.2,9.2,59,0.00,BKN,,0.00,WeatherDisplay:10.37,2013-02-02 16:11:00,
2013-02-02 11:16:00,25.2,12.8,30.16,South,190,9.2,9.2,59,0.00,BKN,,0.00,WeatherDisplay:10.37,2013-02-02 16:16:00,
2013-02-02 11:21:00,26.1,13.7,30.16,South,190,9.2,9.2,59,0.00,BKN,,0.00,WeatherDisplay:10.37,2013-02-02 16:21:00,
2013-02-02 11:26:00,26.8,14.4,30.16,South,190,9.2,9.2,59,0.00,BKN,,0.00,WeatherDisplay:10.37,2013-02-02 16:26:00,
2013-02-02 11:31:00,26.8,14.4,30.16,South,190,9.2,9.2,59,0.00,BKN,,0.00,WeatherDisplay:10.37,2013-02-02 16:31:00,
2013-02-02 11:36:00,26.8,14.4,30.16,South,190,9.2,9.2,59,0.00,BKN,,0.00,WeatherDisplay:10.37,2013-02-02 16:36:00,
2013-02-02 11:41:00,27.0,14.5,30.16,South,190,9.2,9.2,59,0.00,BKN,,0.00,WeatherDisplay:10.37,2013-02-02 16:41:00,
2013-02-02 11:46:00,27.1,14.7,30.16,South,190,9.2,9.2,59,0.00,BKN,,0.00,WeatherDisplay:10.37,2013-02-02 16:46:00,
2013-02-02 11:51:00,27.1,14.7,30.16,South,190,9.2,9.2,59,0.00,BKN,,0.00,WeatherDisplay:10.37,2013-02-02 16:51:00,
2013-02-02 11:56:00,27.0,14.5,30.13,South,190,9.2,9.2,59,0.00,BKN,,0.00,WeatherDisplay:10.37,2013-02-02 16:56:00,
2013-02-02 12:01:00,27.7,11.0,30.13,South,180,10.4,10.4,49,0.00,BKN,,0.00,WeatherDisplay:10.37,2013-02-02 17:01:00,
2013-02-02 12:06:00,27.9,11.1,30.13,South,180,10.4,10.4,49,0.00,BKN,,0.00,WeatherDisplay:10.37,2013-02-02 17:06:00,
2013-02-02 12:11:00,28.0,11.3,30.13,South,180,10.4,10.4,49,0.00,BKN,,0.00,WeatherDisplay:10.37,2013-02-02 17:11:00,
2013-02-02 12:16:00,27.9,11.1,30.13,South,180,10.4,10.4,49,0.00,BKN,,0.00,WeatherDisplay:10.37,2013-02-02 17:16:00,
2013-02-02 12:21:00,27.9,11.1,30.13,South,180,10.4,10.4,49,0.00,BKN,,0.00,WeatherDisplay:10.37,2013-02-02 17:21:00,
2013-02-02 12:26:00,27.9,11.1,30.13,South,180,10.4,10.4,49,0.00,BKN,,0.00,WeatherDisplay:10.37,2013-02-02 17:26:00,
2013-02-02 12:31:00,27.9,11.1,30.13,South,180,10.4,10.4,49,0.00,BKN,,0.00,WeatherDisplay:10.37,2013-02-02 17:31:00,
2013-02-02 12:36:00,28.2,11.5,30.13,South,180,10.4,10.4,49,0.00,BKN,,0.00,WeatherDisplay:10.37,2013-02-02 17:36:00,
2013-02-02 12:41:00,28.6,11.8,30.13,South,180,10.4,10.4,49,0.00,BKN,,0.00,WeatherDisplay:10.37,2013-02-02 17:41:00,
2013-02-02 12:46:00,28.2,11.5,30.10,South,180,10.4,10.4,49,0.00,BKN,,0.00,WeatherDisplay:10.37,2013-02-02 17:46:00,
2013-02-02 12:51:00,28.4,11.6,30.10,South,180,10.4,10.4,49,0.00,BKN,,0.00,WeatherDisplay:10.37,2013-02-02 17:51:00,
2013-02-02 12:56:00,28.6,11.8,30.10,South,180,10.4,10.4,49,0.00,BKN,,0.00,WeatherDisplay:10.37,2013-02-02 17:56:00,
2013-02-02 13:01:00,28.9,11.2,30.10,South,190,12.7,12.7,47,0.00,BKN,,0.00,WeatherDisplay:10.37,2013-02-02 18:01:00,
2013-02-02 13:06:00,29.1,11.4,30.10,South,190,12.7,20.7,47,0.00,BKN,,0.00,WeatherDisplay:10.37,2013-02-02 18:06:00,
2013-02-02 13:11:00,29.5,11.7,30.10,South,190,12.7,20.7,47,0.00,BKN,,0.00,WeatherDisplay:10.37,2013-02-02 18:11:00,
2013-02-02 13:16:00,30.0,12.2,30.07,South,190,12.7,20.7,47,0.00,BKN,,0.00,WeatherDisplay:10.37,2013-02-02 18:16:00,
2013-02-02 13:21:00,29.5,11.7,30.07,South,190,12.7,20.7,47,0.00,BKN,,0.00,WeatherDisplay:10.37,2013-02-02 18:21:00,
2013-02-02 13:26:00,30.0,12.2,30.07,South,190,12.7,20.7,47,0.00,BKN,,0.00,WeatherDisplay:10.37,2013-02-02 18:26:00,
2013-02-02 13:31:00,29.7,11.9,30.07,South,190,12.7,20.7,47,0.00,BKN,,0.00,WeatherDisplay:10.37,2013-02-02 18:31:00,
2013-02-02 13:36:00,29.7,11.9,30.07,South,190,12.7,20.7,47,0.00,BKN,,0.00,WeatherDisplay:10.37,2013-02-02 18:36:00,
2013-02-02 13:41:00,29.8,12.0,30.07,South,190,12.7,20.7,47,0.00,BKN,,0.00,WeatherDisplay:10.37,2013-02-02 18:41:00,
2013-02-02 13:46:00,30.0,12.2,30.07,South,190,12.7,20.7,47,0.00,BKN,,0.00,WeatherDisplay:10.37,2013-02-02 18:46:00,
2013-02-02 13:51:00,29.8,12.0,30.07,South,190,12.7,20.7,47,0.00,BKN,,0.00,WeatherDisplay:10.37,2013-02-02 18:51:00,
2013-02-02 13:56:00,29.7,11.9,30.07,South,190,12.7,20.7,47,0.00,BKN,,0.00,WeatherDisplay:10.37,2013-02-02 18:56:00,
2013-02-02 14:01:00,29.7,11.9,30.07,South,190,12.7,20.7,47,0.00,BKN,,0.00,WeatherDisplay:10.37,2013-02-02 19:01:00,
2013-02-02 14:06:00,29.5,11.7,30.07,South,190,12.7,20.7,47,0.00,BKN,,0.00,WeatherDisplay:10.37,2013-02-02 19:06:00,
2013-02-02 14:11:00,29.7,11.9,30.07,South,190,12.7,20.7,47,0.00,BKN,,0.00,WeatherDisplay:10.37,2013-02-02 19:11:00,
2013-02-02 14:16:00,29.5,8.6,30.07,SSE,150,10.4,20.7,41,0.00,OVC,,0.00,WeatherDisplay:10.37,2013-02-02 19:16:00,
2013-02-02 14:21:00,29.5,8.6,30.07,SSE,150,10.4,10.4,41,0.00,OVC,,0.00,WeatherDisplay:10.37,2013-02-02 19:21:00,
2013-02-02 14:26:00,29.3,8.5,30.07,SSE,150,10.4,10.4,41,0.00,OVC,,0.00,WeatherDisplay:10.37,2013-02-02 19:26:00,
2013-02-02 14:31:00,29.1,8.3,30.07,SSE,150,10.4,10.4,41,0.00,OVC,,0.00,WeatherDisplay:10.37,2013-02-02 19:31:00,
2013-02-02 14:36:00,28.9,8.1,30.07,SSE,150,10.4,10.4,41,0.00,OVC,,0.00,WeatherDisplay:10.37,2013-02-02 19:36:00,
2013-02-02 14:41:00,28.8,8.0,30.07,SSE,150,10.4,10.4,41,0.00,OVC,,0.00,WeatherDisplay:10.37,2013-02-02 19:41:00,
2013-02-02 14:46:00,28.9,8.1,30.04,SSE,150,10.4,10.4,41,0.00,OVC,,0.00,WeatherDisplay:10.37,2013-02-02 19:46:00,
2013-02-02 14:51:00,28.6,7.8,30.04,SSE,150,10.4,10.4,41,0.00,OVC,,0.00,WeatherDisplay:10.37,2013-02-02 19:51:00,
2013-02-02 14:56:00,28.4,7.7,30.04,SSE,150,10.4,10.4,41,0.00,OVC,,0.00,WeatherDisplay:10.37,2013-02-02 19:56:00,
2013-02-02 15:01:00,28.4,7.7,30.04,SSE,150,10.4,10.4,41,0.00,OVC,,0.00,WeatherDisplay:10.37,2013-02-02 20:01:00,
2013-02-02 15:06:00,28.2,7.5,30.04,SSE,150,10.4,10.4,41,0.00,OVC,,0.00,WeatherDisplay:10.37,2013-02-02 20:06:00,
2013-02-02 15:11:00,28.2,7.5,30.04,SSE,150,10.4,10.4,41,0.00,OVC,,0.00,WeatherDisplay:10.37,2013-02-02 20:11:00,
2013-02-02 15:16:00,28.0,8.4,30.04,South,170,11.5,11.5,43,0.00,-SN,,0.00,WeatherDisplay:10.37,2013-02-02 20:16:00,
2013-02-02 15:21:00,28.2,8.6,30.04,South,170,11.5,11.5,43,0.00,-SN,,0.00,WeatherDisplay:10.37,2013-02-02 20:21:00,
2013-02-02 15:26:00,28.0,8.4,30.04,South,170,11.5,11.5,43,0.00,-SN,,0.00,WeatherDisplay:10.37,2013-02-02 20:26:00,
2013-02-02 15:31:00,28.0,8.4,30.04,South,170,11.5,11.5,43,0.00,-SN,,0.00,WeatherDisplay:10.37,2013-02-02 20:31:00,
2013-02-02 15:36:00,28.0,8.4,30.04,South,170,11.5,11.5,43,0.00,-SN,,0.00,WeatherDisplay:10.37,2013-02-02 20:36:00,
2013-02-02 15:41:00,28.2,8.6,30.04,South,170,11.5,11.5,43,0.00,-SN,,0.00,WeatherDisplay:10.37,2013-02-02 20:41:00,
2013-02-02 15:46:00,28.0,8.4,30.04,South,170,11.5,11.5,43,0.00,-SN,,0.00,WeatherDisplay:10.37,2013-02-02 20:46:00,
2013-02-02 15:51:00,28.0,8.4,30.04,South,170,11.5,11.5,43,0.00,-SN,,0.00,WeatherDisplay:10.37,2013-02-02 20:51:00,
2013-02-02 15:56:00,28.0,8.4,30.04,South,170,11.5,11.5,43,0.00,-SN,,0.00,WeatherDisplay:10.37,2013-02-02 20:56:00,
2013-02-02 16:01:00,28.0,8.4,30.04,South,170,11.5,11.5,43,0.00,-SN,,0.00,WeatherDisplay:10.37,2013-02-02 21:01:00,
2013-02-02 16:06:00,27.9,8.2,30.04,South,170,11.5,11.5,43,0.00,-SN,,0.00,WeatherDisplay:10.37,2013-02-02 21:06:00,
2013-02-02 16:11:00,27.9,8.2,30.04,South,170,11.5,11.5,43,0.00,-SN,,0.00,WeatherDisplay:10.37,2013-02-02 21:11:00,
2013-02-02 16:16:00,27.9,7.2,30.04,SSW,200,10.4,19.6,41,0.00,-SN,,0.00,WeatherDisplay:10.37,2013-02-02 21:16:00,
2013-02-02 16:21:00,27.9,7.2,30.04,SSW,200,10.4,19.6,41,0.00,-SN,,0.00,WeatherDisplay:10.37,2013-02-02 21:21:00,
2013-02-02 16:26:00,27.9,7.2,30.04,SSW,200,10.4,19.6,41,0.00,-SN,,0.00,WeatherDisplay:10.37,2013-02-02 21:26:00,
2013-02-02 16:31:00,27.7,7.0,30.04,SSW,200,10.4,19.6,41,0.00,-SN,,0.00,WeatherDisplay:10.37,2013-02-02 21:31:00,
2013-02-02 16:36:00,27.7,7.0,30.04,SSW,200,10.4,19.6,41,0.00,-SN,,0.00,WeatherDisplay:10.37,2013-02-02 21:36:00,
2013-02-02 16:41:00,27.7,7.0,30.04,SSW,200,10.4,19.6,41,0.00,-SN,,0.00,WeatherDisplay:10.37,2013-02-02 21:41:00,
2013-02-02 16:46:00,27.5,6.8,30.04,SSW,200,10.4,19.6,41,0.00,-SN,,0.00,WeatherDisplay:10.37,2013-02-02 21:46:00,
2013-02-02 16:51:00,27.5,6.8,30.04,SSW,200,10.4,19.6,41,0.00,-SN,,0.00,WeatherDisplay:10.37,2013-02-02 21:51:00,
2013-02-02 16:56:00,27.3,6.7,30.04,SSW,200,10.4,19.6,41,0.00,-SN,,0.00,WeatherDisplay:10.37,2013-02-02 21:56:00,
2013-02-02 17:01:00,27.3,6.7,30.04,SSW,210,13.8,19.6,41,0.00,OVC,,0.00,WeatherDisplay:10.37,2013-02-02 22:01:00,
2013-02-02 17:06:00,27.1,6.5,30.04,SSW,210,13.8,13.8,41,0.00,OVC,,0.00,WeatherDisplay:10.37,2013-02-02 22:06:00,
2013-02-02 17:11:00,27.1,6.5,30.04,SSW,210,13.8,13.8,41,0.00,OVC,,0.00,WeatherDisplay:10.37,2013-02-02 22:11:00,
2013-02-02 17:16:00,27.1,6.5,30.04,SSW,210,13.8,13.8,41,0.00,OVC,,0.00,WeatherDisplay:10.37,2013-02-02 22:16:00,
2013-02-02 17:21:00,27.0,6.4,30.04,SSW,210,13.8,13.8,41,0.00,OVC,,0.00,WeatherDisplay:10.37,2013-02-02 22:21:00,
2013-02-02 17:26:00,27.0,6.4,30.04,SSW,210,13.8,13.8,41,0.00,OVC,,0.00,WeatherDisplay:10.37,2013-02-02 22:26:00,
2013-02-02 17:31:00,27.0,6.4,30.04,SSW,210,13.8,13.8,41,0.00,OVC,,0.00,WeatherDisplay:10.37,2013-02-02 22:31:00,
2013-02-02 17:36:00,27.0,6.4,30.04,SSW,210,13.8,13.8,41,0.00,OVC,,0.00,WeatherDisplay:10.37,2013-02-02 22:36:00,
2013-02-02 17:41:00,26.8,6.2,30.04,SSW,210,13.8,13.8,41,0.00,OVC,,0.00,WeatherDisplay:10.37,2013-02-02 22:41:00,
2013-02-02 17:46:00,26.8,6.2,30.04,SSW,210,13.8,13.8,41,0.00,OVC,,0.00,WeatherDisplay:10.37,2013-02-02 22:46:00,
2013-02-02 17:51:00,26.6,6.0,30.04,SSW,210,13.8,13.8,41,0.00,OVC,,0.00,WeatherDisplay:10.37,2013-02-02 22:51:00,
2013-02-02 17:56:00,26.4,5.9,30.04,SSW,210,13.8,13.8,41,0.00,OVC,,0.00,WeatherDisplay:10.37,2013-02-02 22:56:00,
2013-02-02 18:01:00,26.2,5.7,30.04,SSW,210,13.8,13.8,41,0.00,OVC,,0.00,WeatherDisplay:10.37,2013-02-02 23:01:00,
2013-02-02 18:06:00,25.9,5.4,30.04,SSW,210,13.8,13.8,41,0.00,OVC,,0.00,WeatherDisplay:10.37,2013-02-02 23:06:00,
2013-02-02 18:11:00,25.9,5.4,30.04,SSW,210,13.8,13.8,41,0.00,OVC,,0.00,WeatherDisplay:10.37,2013-02-02 23:11:00,
2013-02-02 18:16:00,25.5,13.9,30.04,NNW,340,9.2,13.8,61,0.00,OVC,,0.00,WeatherDisplay:10.37,2013-02-02 23:16:00,
2013-02-02 18:21:00,25.5,13.9,30.04,NNW,340,9.2,9.2,61,0.00,OVC,,0.00,WeatherDisplay:10.37,2013-02-02 23:21:00,
2013-02-02 18:26:00,25.3,13.8,30.04,NNW,340,9.2,9.2,61,0.00,OVC,,0.00,WeatherDisplay:10.37,2013-02-02 23:26:00,
2013-02-02 18:31:00,25.2,13.6,30.04,NNW,340,9.2,9.2,61,0.00,OVC,,0.00,WeatherDisplay:10.37,2013-02-02 23:31:00,
2013-02-02 18:36:00,25.2,13.6,30.04,NNW,340,9.2,9.2,61,0.00,OVC,,0.00,WeatherDisplay:10.37,2013-02-02 23:36:00,
2013-02-02 18:41:00,25.0,13.4,30.04,NNW,340,9.2,9.2,61,0.00,OVC,,0.00,WeatherDisplay:10.37,2013-02-02 23:41:00,
2013-02-02 18:46:00,25.0,13.4,30.04,NNW,340,9.2,9.2,61,0.00,OVC,,0.00,WeatherDisplay:10.37,2013-02-02 23:46:00,
2013-02-02 18:51:00,24.8,13.2,30.04,NNW,340,9.2,9.2,61,0.00,OVC,,0.00,WeatherDisplay:10.37,2013-02-02 23:51:00,
2013-02-02 18:56:00,24.8,13.2,30.04,NNW,340,9.2,9.2,61,0.00,OVC,,0.00,WeatherDisplay:10.37,2013-02-02 23:56:00,
2013-02-02 19:01:00,24.8,13.2,30.07,NNW,340,9.2,9.2,61,0.00,OVC,,0.00,WeatherDisplay:10.37,2013-02-03 00:01:00,
2013-02-02 19:06:00,24.4,12.9,30.07,NNW,340,9.2,9.2,61,0.00,OVC,,0.00,WeatherDisplay:10.37,2013-02-03 00:06:00,
2013-02-02 19:11:00,24.4,12.9,30.07,NNW,340,9.2,9.2,61,0.00,OVC,,0.00,WeatherDisplay:10.37,2013-02-03 00:11:00,
2013-02-02 19:16:00,24.4,15.0,30.07,NW,320,6.9,9.2,67,0.00,OVC,,0.00,WeatherDisplay:10.37,2013-02-03 00:16:00,
2013-02-02 19:21:00,24.3,14.9,30.07,NW,320,6.9,6.9,67,0.00,OVC,,0.00,WeatherDisplay:10.37,2013-02-03 00:21:00,
2013-02-02 19:26:00,24.4,15.0,30.07,NW,320,6.9,6.9,67,0.00,OVC,,0.00,WeatherDisplay:10.37,2013-02-03 00:26:00,
2013-02-02 19:31:00,24.4,15.0,30.07,NW,320,6.9,6.9,67,0.00,OVC,,0.00,WeatherDisplay:10.37,2013-02-03 00:31:00,
2013-02-02 19:36:00,24.1,14.7,30.07,NW,320,6.9,6.9,67,0.00,OVC,,0.00,WeatherDisplay:10.37,2013-02-03 00:36:00,
2013-02-02 19:41:00,23.9,14.5,30.07,NW,320,6.9,6.9,67,0.00,OVC,,0.00,WeatherDisplay:10.37,2013-02-03 00:41:00,
2013-02-02 19:46:00,23.7,14.4,30.07,NW,320,6.9,6.9,67,0.00,OVC,,0.00,WeatherDisplay:10.37,2013-02-03 00:46:00,
2013-02-02 19:51:00,23.7,14.4,30.07,NW,320,6.9,6.9,67,0.00,OVC,,0.00,WeatherDisplay:10.37,2013-02-03 00:51:00,
2013-02-02 19:56:00,23.7,14.4,30.07,NW,320,6.9,6.9,67,0.00,OVC,,0.00,WeatherDisplay:10.37,2013-02-03 00:56:00,
2013-02-02 20:01:00,23.7,14.4,30.07,NW,320,6.9,6.9,67,0.00,OVC,,0.00,WeatherDisplay:10.37,2013-02-03 01:01:00,
2013-02-02 20:06:00,23.7,14.4,30.07,NW,320,6.9,6.9,67,0.00,OVC,,0.00,WeatherDisplay:10.37,2013-02-03 01:06:00,
2013-02-02 20:11:00,23.7,14.4,30.07,NW,320,6.9,6.9,67,0.00,OVC,,0.00,WeatherDisplay:10.37,2013-02-03 01:11:00,
2013-02-02 20:16:00,23.5,15.2,30.07,NW,320,0.0,6.9,70,0.00,OVC,,0.00,WeatherDisplay:10.37,2013-02-03 01:16:00,
2013-02-02 20:21:00,23.5,15.2,30.07,NW,320,0.0,0.0,70,0.00,OVC,,0.00,WeatherDisplay:10.37,2013-02-03 01:21:00,
2013-02-02 20:26:00,23.4,15.0,30.07,NW,320,0.0,0.0,70,0.00,OVC,,0.00,WeatherDisplay:10.37,2013-02-03 01:26:00,
2013-02-02 20:31:00,23.4,15.0,30.07,NW,320,0.0,0.0,70,0.00,OVC,,0.00,WeatherDisplay:10.37,2013-02-03 01:31:00,
2013-02-02 20:36:00,23.2,14.8,30.07,NW,320,0.0,0.0,70,0.00,OVC,,0.00,WeatherDisplay:10.37,2013-02-03 01:36:00,
2013-02-02 20:41:00,23.2,14.8,30.07,NW,320,0.0,0.0,70,0.00,OVC,,0.00,WeatherDisplay:10.37,2013-02-03 01:41:00,
2013-02-02 20:46:00,23.2,14.8,30.07,NW,320,0.0,0.0,70,0.00,OVC,,0.00,WeatherDisplay:10.37,2013-02-03 01:46:00,
2013-02-02 20:51:00,23.2,14.8,30.07,NW,320,0.0,0.0,70,0.00,OVC,,0.00,WeatherDisplay:10.37,2013-02-03 01:51:00,
2013-02-02 20:56:00,23.0,14.7,30.07,NW,320,0.0,0.0,70,0.00,OVC,,0.00,WeatherDisplay:10.37,2013-02-03 01:56:00,
2013-02-02 21:01:00,23.0,14.7,30.07,NW,320,0.0,0.0,70,0.00,OVC,,0.00,WeatherDisplay:10.37,2013-02-03 02:01:00,
2013-02-02 21:06:00,23.0,14.7,30.07,NW,320,0.0,0.0,70,0.00,OVC,,0.00,WeatherDisplay:10.37,2013-02-03 02:06:00,
2013-02-02 21:11:00,22.8,14.5,30.07,NW,320,0.0,0.0,70,0.00,OVC,,0.00,WeatherDisplay:10.37,2013-02-03 02:11:00,
2013-02-02 21:16:00,22.8,14.5,30.07,NW,320,5.8,5.8,70,0.00,BKN,,0.00,WeatherDisplay:10.37,2013-02-03 02:16:00,
2013-02-02 21:21:00,22.8,14.5,30.07,NW,320,5.8,5.8,70,0.00,BKN,,0.00,WeatherDisplay:10.37,2013-02-03 02:21:00,
2013-02-02 21:26:00,22.8,14.5,30.07,NW,320,5.8,5.8,70,0.00,BKN,,0.00,WeatherDisplay:10.37,2013-02-03 02:26:00,
2013-02-02 21:31:00,22.8,14.5,30.07,NW,320,5.8,5.8,70,0.00,BKN,,0.00,WeatherDisplay:10.37,2013-02-03 02:31:00,
2013-02-02 21:36:00,22.8,14.5,30.07,NW,320,5.8,5.8,70,0.00,BKN,,0.00,WeatherDisplay:10.37,2013-02-03 02:36:00,
2013-02-02 21:41:00,22.8,14.5,30.07,NW,320,5.8,5.8,70,0.00,BKN,,0.00,WeatherDisplay:10.37,2013-02-03 02:41:00,
2013-02-02 21:46:00,22.8,14.5,30.07,NW,320,5.8,5.8,70,0.00,BKN,,0.00,WeatherDisplay:10.37,2013-02-03 02:46:00,
2013-02-02 21:51:00,22.6,14.3,30.07,NW,320,5.8,5.8,70,0.00,BKN,,0.00,WeatherDisplay:10.37,2013-02-03 02:51:00,
2013-02-02 21:56:00,22.8,14.5,30.07,NW,320,5.8,5.8,70,0.00,BKN,,0.00,WeatherDisplay:10.37,2013-02-03 02:56:00,
2013-02-02 22:01:00,22.6,14.3,30.07,WSW,250,3.5,5.8,70,0.00,OVC,,0.00,WeatherDisplay:10.37,2013-02-03 03:01:00,
2013-02-02 22:06:00,22.6,14.3,30.07,WSW,250,3.5,3.5,70,0.00,OVC,,0.00,WeatherDisplay:10.37,2013-02-03 03:06:00,
2013-02-02 22:11:00,22.6,14.3,30.07,WSW,250,3.5,3.5,70,0.00,OVC,,0.00,WeatherDisplay:10.37,2013-02-03 03:11:00,
2013-02-02 22:16:00,22.6,14.3,30.07,WSW,250,3.5,3.5,70,0.00,OVC,,0.00,WeatherDisplay:10.37,2013-02-03 03:16:00,
2013-02-02 22:21:00,22.8,14.5,30.07,WSW,250,3.5,3.5,70,0.00,OVC,,0.00,WeatherDisplay:10.37,2013-02-03 03:21:00,
2013-02-02 22:26:00,22.8,14.5,30.07,WSW,250,3.5,3.5,70,0.00,OVC,,0.00,WeatherDisplay:10.37,2013-02-03 03:26:00,
2013-02-02 22:31:00,22.8,14.5,30.07,WSW,250,3.5,3.5,70,0.00,OVC,,0.00,WeatherDisplay:10.37,2013-02-03 03:31:00,
2013-02-02 22:36:00,22.8,14.5,30.07,WSW,250,3.5,3.5,70,0.00,OVC,,0.00,WeatherDisplay:10.37,2013-02-03 03:36:00,
2013-02-02 22:42:00,22.8,14.5,30.07,WSW,250,3.5,3.5,70,0.00,OVC,,0.00,WeatherDisplay:10.37,2013-02-03 03:42:00,
2013-02-02 22:47:00,22.8,14.5,30.07,WSW,250,3.5,3.5,70,0.00,OVC,,0.00,WeatherDisplay:10.37,2013-02-03 03:47:00,
2013-02-02 22:52:00,22.8,14.5,30.07,WSW,250,3.5,3.5,70,0.00,OVC,,0.00,WeatherDisplay:10.37,2013-02-03 03:52:00,
2013-02-02 22:57:00,22.8,14.5,30.07,WSW,250,3.5,3.5,70,0.00,OVC,,0.00,WeatherDisplay:10.37,2013-02-03 03:57:00,
2013-02-02 23:02:00,22.8,13.5,30.07,WSW,250,0.0,3.5,67,0.00,OVC,,0.00,WeatherDisplay:10.37,2013-02-03 04:02:00,
2013-02-02 23:07:00,22.8,13.5,30.07,WSW,250,0.0,0.0,67,0.00,OVC,,0.00,WeatherDisplay:10.37,2013-02-03 04:07:00,
2013-02-02 23:12:00,22.8,13.5,30.07,WSW,250,0.0,0.0,67,0.00,OVC,,0.00,WeatherDisplay:10.37,2013-02-03 04:12:00,
2013-02-02 23:17:00,22.8,13.5,30.07,WSW,250,0.0,0.0,67,0.00,OVC,,0.00,WeatherDisplay:10.37,2013-02-03 04:17:00,
2013-02-02 23:22:00,22.8,13.5,30.07,WSW,250,0.0,0.0,67,0.00,OVC,,0.00,WeatherDisplay:10.37,2013-02-03 04:22:00,
2013-02-02 23:27:00,22.8,13.5,30.07,WSW,250,0.0,0.0,67,0.00,OVC,,0.00,WeatherDisplay:10.37,2013-02-03 04:27:00,
2013-02-02 23:32:00,22.8,13.5,30.07,WSW,250,0.0,0.0,67,0.00,OVC,,0.00,WeatherDisplay:10.37,2013-02-03 04:32:00,
2013-02-02 23:37:00,22.8,13.5,30.07,WSW,250,0.0,0.0,67,0.00,OVC,,0.00,WeatherDisplay:10.37,2013-02-03 04:37:00,
2013-02-02 23:42:00,22.8,13.5,30.07,WSW,250,0.0,0.0,67,0.00,OVC,,0.00,WeatherDisplay:10.37,2013-02-03 04:42:00,
2013-02-02 23:47:00,23.0,13.7,30.07,WSW,250,0.0,0.0,67,0.00,OVC,,0.00,WeatherDisplay:10.37,2013-02-03 04:47:00,
2013-02-02 23:52:00,22.8,13.5,30.07,WSW,250,0.0,0.0,67,0.00,OVC,,0.00,WeatherDisplay:10.37,2013-02-03 04:52:00,
2013-02-02 23:57:00,22.8,13.5,30.07,WSW,250,0.0,0.0,67,0.00,OVC,,0.00,WeatherDisplay:10.37,2013-02-03 04:57:00,